Ergebnisliste vom: 12.05.2007 - BlŘtenlauf-Kamenz2007 - 2 km(gesamt)

weitere Ergebnisse >>

Platz Plm Plw Stnr. Name,Vorname Verein GJ AK Akm Akw Endzeit RŘckst. WB
1 1   1479 B├╝chner, Franziskus SV Einheit Kamenz 93 mSchA 1   0:06:48 0:00:00 4
2   1 1470 Arnold, Maxi SV Einheit Kamenz 93 wSchA   1 0:06:53 0:00:05 4
3 2   1346 Kamolz, Anton Radeberg 96 mSchC 1   0:07:03 0:00:15 2
4 3   1434 B├╝low, Eduard SV Einheit Kamenz 94 mSchB 1   0:07:10 0:00:22 3
5 4   1281 Zwintscher, Lukas Grundschule Am Forst Kamenz 97 mSchC 2   0:07:12 0:00:24 2
6 5   1433 Lautenbach, Maik SV Einheit Kamenz 95 mSchB 2   0:07:15 0:00:27 3
7 6   1431 Ueberfuhr, Marc SV Einheit Kamenz 95 mSchB 3   0:07:17 0:00:29 3
8 7   2054 Kohaout, Christoph Prietitz 93 mSchA 2   0:07:20 0:00:32 4
9 8   1411 W├Ąhner, Martin HSV 1923 Pulsnitz 95 mSchB 4   0:07:22 0:00:34 3
10 9   1292 Frenzel, Tino Grundschule Bischheim 97 mSchC 3   0:07:28 0:00:40 2
11 10   2079 Weist, Toni Lauftreff Lausitz e.V. Hoyerswerda 93 mSchA 3   0:07:29 0:00:41 4
12 11   1331 Meiser, Mirko GS Wiesa Sophie Scholl Kamenz 97 mSchC 4   0:07:31 0:00:43 2
12   2 1349 Knop, Blanka SG Motor Freital e.V. 97 wSchC   1 0:07:31 0:00:43 2
14 12   1373 Rei├čig, Florian TV 1848 Bischofswerda 96 mSchC 5   0:07:35 0:00:47 2
15 13   1354 Noack, Kevin SV Einheit Kamenz 96 mSchC 6   0:07:37 0:00:49 2
16   3 1406 Werner, Julia Grundschule Am Forst Kamenz 95 wSchB   1 0:07:42 0:00:54 3
17   4 1404 Wagner, Nele Bautzener LV Rot Wei├č 90 94 wSchB   2 0:07:43 0:00:55 3
18   5 1459 Wels, Laura O├čling 93 wSchA   2 0:07:44 0:00:56 4
19 14   1468 Ueberfuhr, Eric SV Einheit Kamenz 93 mSchA 4   0:07:46 0:00:58 4
20 15   1081 G├Âthel, Lukas Grundschule Am Forst Kamenz 98 mSchD 1   0:07:47 0:00:59 1
20 15   1372 Brengel, Florian TV 1848 Bischofswerda 97 mSchC 7   0:07:47 0:00:59 2
22   6 1458 D├Ârnbrack, Marie LT Speed 92 wSchA   3 0:07:48 0:01:00 4
23 17   1182 Blatzky, Florian SV Einheit Kamenz 99 mSchD 2   0:07:49 0:01:01 1
24 18   1185 Soucek, Jirka SV Einheit Kamenz 98 mSchD 3   0:07:52 0:01:04 1
25 19   1451 Kreher, Michael 2. Mittelschule Kamenz 93 mSchA 5   0:07:53 0:01:05 4
26 20   1186 Lottes, Felix SV Einheit Kamenz 98 mSchD 4   0:07:54 0:01:06 1
27 21   1294 Garbe, Dennis Grundschule Bischheim 97 mSchC 8   0:07:54 0:01:06 2
28 22   1252 Wagner, Till Bautzener LV Rot Wei├č 90 96 mSchC 9   0:07:55 0:01:07 2
28 22   1307 Dietz, Malte GS Am Gickelsberg Kamenz 97 mSchC 9   0:07:55 0:01:07 2
30 24   1184 Paulsen, Tom SV Einheit Kamenz 98 mSchD 5   0:07:57 0:01:09 1
31 25   1073 Wiesner, Dennis Grundschule Am Forst Kamenz 98 mSchD 6   0:07:58 0:01:10 1
32 26   1340 Simon, John Lessing-Gymnasium Kamenz 96 mSchC 11   0:07:59 0:01:11 2
33 27   1003 K├╝hr, Pascal BLV Rot-Wei├č 90 Bautzen 98 mSchD 7   0:08:01 0:01:13 1
34 28   1467 Lenk, Samuel SV Einheit Kamenz 93 mSchA 6   0:08:02 0:01:14 4
35   7 1150 Schneewei├č, Lina SG Motor Freital e.V. 98 wSchD   1 0:08:04 0:01:16 1
35   7 1417 Guhr, Julia OSSV Kamenz 94 wSchB   3 0:08:04 0:01:16 3
37 29   1187 Winkler, Max SV Einheit Kamenz 98 mSchD 8   0:08:06 0:01:18 1
37 29   1365 Hellmann, Paul SV Einheit Kamenz 97 mSchC 12   0:08:06 0:01:18 2
37   9 1439 Regenstein, Annemarie SV Einheit Kamenz 95 wSchB   4 0:08:06 0:01:18 3
40 31   1253 Schippel, Dominic Biehla 97 mSchC 13   0:08:07 0:01:19 2
41 32   1071 Winter, Lucas Grundschule Am Forst Kamenz 98 mSchD 9   0:08:08 0:01:20 1
42   10 1476 B├Âhme, Julia TV 1848 Bischofswerda 95 wSchB   5 0:08:09 0:01:21 3
43 33   1407 M├╝tze, Kevin Grundschule Bischheim 95 mSchB 5   0:08:10 0:01:22 3
44 34   1362 Michael, Thomas TV Valtenberg Neukirch 97 mSchC 14   0:08:12 0:01:24 2
44   11 1473 Dietz, Janne Kamenz 95 wSchB   6 0:08:12 0:01:24 3
46 35   1435 Klamert, Erik SV Einheit Kamenz 94 mSchB 6   0:08:17 0:01:29 3
47 36   1284 Burzlaff, Hannes Grundschule Am Forst Kamenz 96 mSchC 15   0:08:18 0:01:30 2
48 37   1050 Fiedler, Marcus Grundschule Am Forst Kamenz   mSchD 10   0:08:19 0:01:31 1
49   12 1371 Schneider, Laura TV 1848 Bischofswerda 97 wSchC   2 0:08:19 0:01:31 2
50   13 1352 Klix, Annelie Ski-Club Kottmar 96 wSchC   3 0:08:20 0:01:32 2
50   13 1475 Freudenberg, Lisa Haselbachtal 94 wSchB   7 0:08:20 0:01:32 3
52 38   1412 Wendt, Josef Lessing Gymnasium Kamenz 94 mSchB 7   0:08:21 0:01:33 3
52   15 1422 R├Ântzsch, Christiane SG Oberlichtenau 95 wSchB   8 0:08:21 0:01:33 3
54 39   1356 Krestew, Sebastian SV Gr├╝n-Wei├č Elstra 96 mSchC 16   0:08:22 0:01:34 2
54 39   1419 K├Ąppler, Felix PSV Judo KAmenz 94 mSchB 8   0:08:22 0:01:34 3
56 41   1423 Scheibler, Simon SV Gr├╝n-Wei├č Elstra 95 mSchB 9   0:08:23 0:01:35 3
57 42   1478 Sch├╝tz, Alexander 2. MS Kamenz 94 mSchB 10   0:08:24 0:01:36 3
58 43   1002 Wagner, Jonas BLV Rot-Wei├č 90 Bautzen 98 mSchD 11   0:08:25 0:01:37 1
58 43   1214 Klawitter, Niklas GS Wiesa Sophie Scholl 99 mSchD 11   0:08:25 0:01:37 1
58   16 1381 Wodner, Cindy TV 1848 Bischofswerda 96 wSchC   4 0:08:25 0:01:37 2
61 45   1319 Imbach, Philipp GS Wiesa Sophie Scholl Kamenz 97 mSchC 17   0:08:28 0:01:40 2
61 45   1432 Blatzky, Sebastian SV Einheit Kamenz 95 mSchB 11   0:08:28 0:01:40 3
63 47   1416 Partusch, Jonas Oberlichtenau/Familienwertung 95 mSchB 12   0:08:29 0:01:41 3
64   17 1109 Scupin, Leonie GS Am Gickelsberg Kamenz 98 wSchD   2 0:08:31 0:01:43 1
64 48   1335 Schulze, Marcel GS Wiesa Sophie Scholl Kamenz 97 mSchC 18   0:08:31 0:01:43 2
66 49   1296 M├╝tze, S├Âren Grundschule Bischheim 97 mSchC 19   0:08:32 0:01:44 2
67 50   1189 K├Ânig, Christoph SV Einheit Kamenz 99 mSchD 13   0:08:33 0:01:45 1
68 51   1198 Kunath, Robin HSV 1923 Pulsnitz 99 mSchD 14   0:08:34 0:01:46 1
69   18 1436 Zessin, Franziska SV Einheit Kamenz 95 wSchB   9 0:08:35 0:01:47 3
70 52   1327 Schulze, Richard GS Wiesa Sophie Scholl Kamenz 96 mSchC 20   0:08:35 0:01:47 2
71   19 1338 Wendt, Johanna Lessing Gymnasium Kamenz 96 wSchC   5 0:08:37 0:01:49 2
72   20 1438 Schulze, Marianne SV Einheit Kamenz 95 wSchB   10 0:08:38 0:01:50 3
73 53   1324 Driesnack, Sebastian GS Wiesa Sophie Scholl Kamenz 96 mSchC 21   0:08:39 0:01:51 2
74 54   1366 Putzke, Tom SV Einheit Kamenz 96 mSchC 22   0:08:42 0:01:54 2
75   21 1351 Russin, Paula SG Wei├čig 1861 97 wSchC   6 0:08:43 0:01:55 2
75   21 1437 Trautmann, Nadine SV Einheit Kamenz 95 wSchB   11 0:08:43 0:01:55 3
77   23 1035 Wiesner, Jessica Grundschule Am Forst Kamenz 98 wSchD   3 0:08:45 0:01:57 1
77 55   1183 Rycer, Marko SV Einheit Kamenz 99 mSchD 15   0:08:45 0:01:57 1
79 56   1212 Tzschoppe, Paul Koitzsch 96 mSchC 23   0:08:45 0:01:57 2
80 57   1135 Paul, Hentschel HSG Turbine Zittau   mSchD 16   0:08:46 0:01:58 1
80 57   1377 K├Âhler, Benjamin Elektro Poick 97 mSchC 24   0:08:46 0:01:58 2
82   24 1205 Meiser, Mareen Kamenz 99 wSchD   4 0:08:47 0:01:59 1
83 59   1196 Gro├čmann, Arthur SV Steina 1885 99 mSchD 17   0:08:48 0:02:00 1
84 60   1313 Schindler, Fabian GS Am Gickelsberg Kamenz 96 mSchC 25   0:08:48 0:02:00 2
85 61   1171 Fiedler, Florian SV KOWEG G├Ârlitz 98 mSchD 18   0:08:49 0:02:01 1
86 62   1168 Scheibler, Jonas SV Gr├╝n-Wei├č Elstra 98 mSchD 19   0:08:50 0:02:02 1
87   25 1425 Barth, Hanna SV Gr├╝n-Wei├č Elstra 95 Volkslauf-w   1 0:08:53 0:02:05 2
88   26 1465 Sch├Ąfer, Lisa   92 wSchA   4 0:08:55 0:02:07 4
89   27 1153 B├╝chner, Magdalena SV Einheit Kamenz 98 wSchD   5 0:08:57 0:02:09 1
89   27 1421 J├╝rgenlohmann, Lisa SG Motor Freital e.V. 94 wSchB   12 0:08:57 0:02:09 3
91 63   1084 B├Âttcher, Julian Grundschule Am Forst Kamenz 98 mSchD 20   0:08:59 0:02:11 1
92   29 1427 Sluka, Maria SV Gr├╝n-Wei├č Elstra 94 wSchB   13 0:09:00 0:02:12 3
93 64   1099 Strunkowski, Tim GS Am Gickelsberg Kamenz 98 mSchD 21   0:09:03 0:02:15 1
94   30 1146 Kamolz, Clara Radeberg 99 wSchD   6 0:09:04 0:02:16 1
94   30 1149 Feierle, Katharina SG Motor Freital e.V. 99 wSchD   6 0:09:04 0:02:16 1
94 65   1480 Baumann, Judith SV Einheit Kamenz 95 Volkslauf 1   0:09:04 0:02:16 4
97   32 1347 Feierle, Franziska SG Motor Freital e.V. 96 wSchC   7 0:09:05 0:02:17 2
98   33 1086 Kramer, Laura Grundschule Am Forst Kamenz 99 wSchD   8 0:09:06 0:02:18 1
98 66   1127 Driesnack, Vincenz GS Wiesa Sophie Scholl Kamenz 99 mSchD 22   0:09:06 0:02:18 1
98 66   1272 Wonneberger, Carl Grundschule Am Forst Kamenz 97 mSchC 26   0:09:06 0:02:18 2
98   33 1426 Jeske, Sophie SV Gr├╝n-Wei├č Elstra 95 wSchB   14 0:09:06 0:02:18 3
102 68   1138 Saul, Ralf Kamenzer Pistenst├╝rmer   mSchD 23   0:09:07 0:02:19 1
102   35 1219 Gie├čler, Heidemarie   99 wSchD   9 0:09:07 0:02:19 1
104 69   1276 Nguyen, QuocCuong Grundschule Am Forst Kamenz 97 mSchC 27   0:09:07 0:02:19 2
105   36 1192 Wowtscherk, Uta SV Einheit Kamenz 98 wSchD   10 0:09:08 0:02:20 1
105 70   1287 Ullner, Fabian Grundschule Am Forst Kamenz 96 mSchC 28   0:09:08 0:02:20 2
105 70   1318 Berger, Johann GS Wiesa Sophie Scholl Kamenz 97 mSchC 28   0:09:08 0:02:20 2
108 72   1147 Buhlmann, Nick SG Motor Freital e.V. 99 mSchD 24   0:09:14 0:02:26 1
109 73   1210 Voigt, Caspar-Dennis PSV Zittau 99 mSchD 25   0:09:15 0:02:27 1
109   37 1357 Unger, Maxi SV Gr├╝n-Wei├č Elstra 96 wSchC   8 0:09:15 0:02:27 2
109   37 1429 Wit, Anita Ossling 94 wSchB   15 0:09:15 0:02:27 3
112 74   1143 Reppe, Alwin Oberlichtenau   mSchD 26   0:09:16 0:02:28 1
112 74   1172 Kothe, Kevin TV Valtenberg/ Neukirch 99 mSchD 26   0:09:16 0:02:28 1
112   39 1469 Frauenstein, Elisa SV Einheit Kamenz 93 wSchA   5 0:09:16 0:02:28 4
115 76   1055 Lehnhardt, Tom Grundschule Am Forst Kamenz 99 mSchD 28   0:09:17 0:02:29 1
116 77   1065 Gratz, Christoph Grundschule Am Forst Kamenz 99 mSchD 29   0:09:18 0:02:30 1
116   40 1195 Vogel, Christin HSV Pulsnitz 98 wSchD   11 0:09:18 0:02:30 1
116   40 1344 Schwenke, Carolin OSSV Kamenz 96 wSchC   9 0:09:18 0:02:30 2
119   42 1098 Gollnick, Julemarie GS Am Gickelsberg Kamenz 99 wSchD   12 0:09:19 0:02:31 1
120   43 1348 J├╝rgenlohmann, Anna SG Motor Freital e.V. 96 wSchC   10 0:09:20 0:02:32 2
121   44 1301 Wendt, Dimah GS Am Gickelsberg Kamenz 97 wSchC   11 0:09:21 0:02:33 2
121 78   1363 Knesche, Tim Bischheim 96 mSchC 30   0:09:21 0:02:33 2
121 78   1367 Klamert, Kai SV Einheit Kamenz 96 mSchC 30   0:09:21 0:02:33 2
124 80   1092 Ueberfuhr, Paul GS Am Gickelsberg Kamenz   mSchD 30   0:09:22 0:02:34 1
124 80   1113 Freudenberg, Tom GS Am Gickelsberg Kamenz 98 mSchD 30   0:09:22 0:02:34 1
124   45 1370 Kretschmar, Sarah SV Lok G├Ârlitz 97 wSchC   12 0:09:22 0:02:34 2
124 80   1402 Barchmann, Max 2. Mittelschule Kamenz 95 mSchB 13   0:09:22 0:02:34 3
128 83   1128 Haase, Philip GS Wiesa Sophie Scholl Kamenz 98 mSchD 32   0:09:23 0:02:35 1
129 84   1379 Rietschel, Elias GS Wiesa 96 mSchC 32   0:09:23 0:02:35 2
130   46 1038 Seiler, Antonia Grundschule Am Forst Kamenz 98 wSchD   13 0:09:24 0:02:36 1
130 85   1060 Heide, Justin Grundschule Am Forst Kamenz 99 mSchD 33   0:09:24 0:02:36 1
130 85   1325 Hauffe, Christopher GS Wiesa Sophie Scholl Kamenz 96 mSchC 33   0:09:24 0:02:36 2
133 87   1286 Heine, Jakob Grundschule Am Forst Kamenz 97 mSchC 34   0:09:25 0:02:37 2
134   47 1341 Keller, Anne Lessing-Gymnasium Kamenz 96 wSchC   13 0:09:27 0:02:39 2
135 88   1302 Mehnert, Florian GS Am Gickelsberg Kamenz 97 mSchC 35   0:09:28 0:02:40 2
135   48 1310 Frost, Marie GS Am Gickelsberg Kamenz 96 wSchC   14 0:09:28 0:02:40 2
137   49 1336 Altmann, Melanie Heidenau 96 wSchC   15 0:09:29 0:02:41 2
138   50 1330 Han├čke, Lisa GS Wiesa Sophie Scholl Kamenz 97 wSchC   16 0:09:30 0:02:42 2
138 89   1408 Garten, Philipp Grundschule Bischheim 95 mSchB 14   0:09:30 0:02:42 3
140   51 1304 Keller, Nele GS Am Gickelsberg Kamenz 97 wSchC   17 0:09:31 0:02:43 2
141   52 1298 Sauer, Katja Grundschule Bischheim 96 wSchC   18 0:09:32 0:02:44 2
142 90   1481 Scapan, Paul GS Wiese 95 Volkslauf 2   0:09:33 0:02:45 2
143   53 1339 P├Ânisch, Aileen Lessing-Gymnasium Kamenz 96 wSchC   19 0:09:35 0:02:47 2
143   53 1343 Zieris, Karolin OSSV Kamenz 96 wSchC   19 0:09:35 0:02:47 2
145   55 1430 Kreher, Christine Kamenz 95 wSchB   16 0:09:36 0:02:48 3
146   56 1255 Liebe, Annemarie Grundschule Am Forst Kamenz 97 wSchC   21 0:09:37 0:02:49 2
146   56 1342 Zimmer, Annabelle OSSV 96 wSchC   21 0:09:37 0:02:49 2
148 91   1179 Schuster, Maximilian SV Einheit Kamenz 99 mSchD 34   0:09:38 0:02:50 1
148 91   1405 Maximilian, Moder Dresden/Familienwertung 95 mSchB 15   0:09:38 0:02:50 3
150   58 1258 Kroll, Marina Grundschule Am Forst Kamenz 96 wSchC   23 0:09:38 0:02:50 2
151   59 1440 B├Âhme, Sophie SV Einheit Kamenz 94 wSchB   17 0:09:40 0:02:52 3
152   60 1140 Seidel, Miriam K├Ânigsbr├╝ck   wSchD   14 0:09:41 0:02:53 1
152 93   1201 Oehm, Fridtjof Bautzen 1 mSchD 35   0:09:41 0:02:53 1
152   60 1472 St├Ąglich, Katja SV Gr├╝n-Wei├č Elstra 95 wSchB   18 0:09:41 0:02:53 3
155 94   1048 Scholz, Lion Grundschule Am Forst Kamenz   mSchD 36   0:09:43 0:02:55 1
155 94   1345 Bartsch, Stephan Pliesskowitz 96 Volkslauf 3   0:09:43 0:02:55 1
155   62 1477 Winter, Elisa TV 1848 Bischofswerda 94 wSchB   19 0:09:43 0:02:55 3
158 96   1380 G├╝nther, Maximilian SV Deutschbaselitz 96 mSchC 36   0:09:44 0:02:56 2
159 97   1067 Hartmann, Denis Grundschule Am Forst Kamenz 98 mSchD 37   0:09:45 0:02:57 1
160 98   1087 Cech, Franz Grundschule Bischheim 97 mSchC 37   0:09:45 0:02:57 2
160   63 1309 Heintze, Ulrike GS Am Gickelsberg Kamenz 97 wSchC   24 0:09:45 0:02:57 2
160   63 1315 Vogel, Antonia GS Am Gickelsberg Kamenz 96 wSchC   24 0:09:45 0:02:57 2
163 99   1193 Moritz, Hans SV Laussnitz 98 mSchD 38   0:09:46 0:02:58 1
164 100   1117 Berger, Oskar GS Wiesa Sophie Scholl Kamenz   mSchD 39   0:09:47 0:02:59 1
165 101   1056 Schneider, Tom Grundschule Am Forst Kamenz 99 mSchD 40   0:09:48 0:03:00 1
166 102   1074 Ge├čner, Nikolas Grundschule Am Forst Kamenz 98 mSchD 41   0:09:49 0:03:01 1
167 103   1165 Barth, Robert SV Gr├╝n-Wei├č Elstra   mSchD 42   0:09:52 0:03:04 1
168   65 1088 Schmidt, Janina Grundschule Bischheim 98 wSchD   15 0:09:53 0:03:05 1
169   66 1144 Partusch, Lena Oberlichtenau/Familienwertung 98 wSchD   16 0:09:55 0:03:07 1
170 104   1285 Petasch, Lynn Grundschule Am Forst Kamenz 96 mSchC 38   0:09:56 0:03:08 2
171   67 1174 Sch├╝ttauf, Johanna SG Motor Freital 99 wSchD   17 0:10:00 0:03:12 1
172 105   1094 Baumann, Benedikt GS Am Gickelsberg Kamenz   mSchD 43   0:10:02 0:03:14 1
172 105   1111 Baumann, Dominik GS Am Gickelsberg Kamenz 98 mSchD 43   0:10:02 0:03:14 1
174   68 1483 Wonneberger, Anna SV Einheit Kamenz 94 wSchB   20 0:10:03 0:03:15 3
175   69 1418 Schwenke, Franziska OSSV Kamenz 94 wSchB   21 0:10:04 0:03:16 3
176   70 1256 Pudollek, Lissy Grundschule Am Forst Kamenz 97 wSchC   26 0:10:04 0:03:16 2
177 107   1217 Weizel, Max Bernsdorf 98 mSchD 45   0:10:05 0:03:17 1
177 107   1320 Mittag, Tom GS Wiesa Sophie Scholl Kamenz 97 mSchC 39   0:10:05 0:03:17 2
177 107   1355 Unger, Willi SV Gr├╝n-Wei├č Elstra 97 mSchC 39   0:10:05 0:03:17 2
180 110   1079 Nehls, Alexander Grundschule Am Forst Kamenz 98 mSchD 46   0:10:07 0:03:19 1
181   71 1374 Steinert, Anne-Marie Kamenz 96 wSchC   27 0:10:08 0:03:20 2
182 111   1289 Fu├čan, Tommy Grundschule Am Forst Kamenz 96 mSchC 41   0:10:09 0:03:21 2
182 111   1329 Ziert, Jonas GS Wiesa Sophie Scholl Kamenz 96 mSchC 41   0:10:09 0:03:21 2
184   72 1021 Himmelsbach, Josefine Grundschule Am Forst Kamenz   wSchD   18 0:10:10 0:03:22 1
185   73 1291 Manja, Marisa Grundschule Bischheim 96 wSchC   28 0:10:10 0:03:22 2
186   74 1254 Danai, Faranak Grundschule Am Forst Kamenz 97 wSchC   29 0:10:11 0:03:23 2
187 113   1078 Merker, Daniel Grundschule Am Forst Kamenz 98 mSchD 47   0:10:12 0:03:24 1
188 114   1108 Otto, Felix GS Am Gickelsberg Kamenz 98 mSchD 48   0:10:13 0:03:25 1
189   75 1016 Scholz, Johanna Grundschule Am Forst Kamenz 99 wSchD   19 0:10:14 0:03:26 1
190 115   1283 Weber, Marten Grundschule Am Forst Kamenz 96 mSchC 43   0:10:14 0:03:26 2
190 115   1454 Kramer, Joachim Bischofswerda 49 Volkslauf 4   0:10:14 0:03:26 2
192 117   1167 Unger, Felix SV Gr├╝n-Wei├č Elstra 99 mSchD 49   0:10:15 0:03:27 1
193   76 1023 Pirgel, Tina Grundschule Am Forst Kamenz 98 wSchD   20 0:10:17 0:03:29 1
193 118   1110 Pfuhl, Jonas GS Am Gickelsberg Kamenz 98 mSchD 50   0:10:17 0:03:29 1
195   77 1361 Handrischeck, Laura SV Steina 1885 e.V. 97 wSchC   30 0:10:17 0:03:29 2
196   78 1142 Reppe, LIsa Oberlichtenau 98 wSchD   21 0:10:18 0:03:30 1
197   79 1103 B├Âhme, Lisa GS Am Gickelsberg Kamenz 98 wSchD   22 0:10:20 0:03:32 1
197 119   1403 Heinze, Eric Basketball Kamenz 95 Volkslauf 5   0:10:20 0:03:32 1
199   80 1085 Hudalla, Nathalie Grundschule Am Forst Kamenz 98 wSchD   23 0:10:21 0:03:33 1
199 120   1280 Schneider, Tobias Grundschule Am Forst Kamenz 97 mSchC 44   0:10:21 0:03:33 2
201   81 1032 Berndt, Patricia Grundschule Am Forst Kamenz 98 wSchD   24 0:10:22 0:03:34 1
201 121   1059 Kubisch, Florian Grundschule Am Forst Kamenz 99 mSchD 51   0:10:22 0:03:34 1
201   81 1091 Sch├Ânfelder, Ari GS Am Gickelsberg Kamenz   wSchD   24 0:10:22 0:03:34 1
204   83 1267 Gratz, Jaqueline Grundschule Am Forst Kamenz 97 wSchC   31 0:10:22 0:03:34 2
205   84 1030 Salah, Mariam Grundschule Am Forst Kamenz 99 wSchD   26 0:10:23 0:03:35 1
205 122   1129 K├╝nstler, Maximilian GS Wiesa Sophie Scholl Kamenz 99 mSchD 52   0:10:23 0:03:35 1
205 122   1145 Bartsch, Oliver Pliesskowitz 98 mSchD 52   0:10:23 0:03:35 1
208   85 1265 G├Ąrtner, Cheyenne Grundschule Am Forst Kamenz 97 wSchC   32 0:10:23 0:03:35 2
209 124   1072 Memetov, Alexander Grundschule Am Forst Kamenz 98 mSchD 54   0:10:24 0:03:36 1
209   86 1369 Schoene, Lisa HSV Pulsnitz 97 wSchC   33 0:10:24 0:03:36 2
211   87 1024 Einsiedel, Elisa Grundschule Am Forst Kamenz 98 wSchD   27 0:10:25 0:03:37 1
211 125   1057 Zemlin, Dominic Grundschule Am Forst Kamenz 99 mSchD 55   0:10:25 0:03:37 1
211 125   1178 Forker, Dustin SV Einheit Kamenz 99 mSchD 55   0:10:25 0:03:37 1
214   88 1122 Hermann, Sandra GS Wiesa Sophie Scholl Kamenz 99 wSchD   28 0:10:26 0:03:38 1
214   88 1123 Hirsch, Gina-Maria GS Wiesa Sophie Scholl Kamenz 99 wSchD   28 0:10:26 0:03:38 1
216   90 1305 Domschke, Susann GS Am Gickelsberg Kamenz 97 wSchC   34 0:10:26 0:03:38 2
217   91 1008 Balz, Kristina Grundschule Am Forst Kamenz 99 wSchD   30 0:10:29 0:03:41 1
218   92 1264 Oehl, Judit Grundschule Am Forst Kamenz 96 wSchC   35 0:10:31 0:03:43 2
219 127   1047 Wonneberger, Paul Grundschule Am Forst Kamenz   mSchD 57   0:10:32 0:03:44 1
220 128   1069 R├Âber, Emanuel Grundschule Am Forst Kamenz 98 mSchD 58   0:10:33 0:03:45 1
220 128   1119 Scapan, Julian GS Wiesa Sophie Scholl Kamenz 99 mSchD 58   0:10:33 0:03:45 1
222   93 1010 Paul, Nadine Grundschule Am Forst Kamenz   wSchD   31 0:10:35 0:03:47 1
223   94 1017 Scholz, Marie-Antonia Grundschule Am Forst Kamenz 99 wSchD   32 0:10:38 0:03:50 1
224 130   1194 Vogel, Marc TSV Pulsnitz   mSchD 60   0:10:40 0:03:52 1
225 131   1482 Rietschel, Lukas GS Wiesa 94 mSchB 16   0:10:41 0:03:53 3
226 132   1068 Lange, Andr├Ę Grundschule Am Forst Kamenz 98 mSchD 61   0:10:42 0:03:54 1
226   95 1132 Rosenberger, Nadine GS Wiesa Sophie Scholl Kamenz 98 wSchD   33 0:10:42 0:03:54 1
228   96 1414 Heintze, Sabine Lessing-Gymnasium Kamenz 95 wSchB   22 0:10:42 0:03:54 3
229   97 1297 Anton, Melanie Grundschule Bischheim 96 wSchC   36 0:10:43 0:03:55 2
229   97 1400 K├Ânig, Franziska 2. Mittelschule Kamenz 94 wSchB   23 0:10:43 0:03:55 3
231   99 1124 Hoffmann, Jule GS Wiesa Sophie Scholl Kamenz 98 wSchD   34 0:10:44 0:03:56 1
231 133   1279 Philipp, Benjamin Grundschule Am Forst Kamenz 97 mSchC 45   0:10:44 0:03:56 2
231   99 1378 Tzschoppe, Josephine Koitzsch 98 wSchD   34 0:10:44 0:03:56 1
234   101 1011 Kreische, Lena Grundschule Am Forst Kamenz   wSchD   36 0:10:45 0:03:57 1
235   102 1125 Schlechter, Kim GS Wiesa Sophie Scholl Kamenz 98 wSchD   37 0:10:46 0:03:58 1
235 134   1314 Orschel, Toni GS Am Gickelsberg Kamenz 96 mSchC 46   0:10:46 0:03:58 2
237 135   1070 Menzel, Rico Grundschule Am Forst Kamenz 98 mSchD 62   0:10:47 0:03:59 1
237   103 1131 Fabry, AnneMaria GS Wiesa Sophie Scholl Kamenz 98 wSchD   38 0:10:47 0:03:59 1
239   104 1013 Sch├Âne, Julia Grundschule Am Forst Kamenz 99 wSchD   39 0:10:48 0:04:00 1
239   104 1134 W├╝rz, Luise GS Wiesa Sophie Scholl Kamenz 98 wSchD   39 0:10:48 0:04:00 1
241 136   1282 Huke, Eric Grundschule Am Forst Kamenz 97 mSchC 47   0:10:48 0:04:00 2
242 137   1316 Klaebe, Alexander GS Am Gickelsberg Kamenz 96 mSchC 48   0:10:51 0:04:03 2
243 138   1075 Hermann, Leon Grundschule Am Forst Kamenz 98 mSchD 63   0:10:52 0:04:04 1
244   106 1300 Natuschke, Elisa GS Am Gickelsberg Kamenz 97 Volkslauf-w   2 0:10:53 0:04:05 1
245 139   1213 Morgenstern, Tobias GS Wiesa Sophie Scholl Kamenz 99 mSchD 64   0:10:55 0:04:07 1
246 140   1082 Beger, Eric Grundschule Am Forst Kamenz 98 mSchD 65   0:10:56 0:04:08 1
247 141   1077 Lauke, Tom Grundschule Am Forst Kamenz 98 mSchD 66   0:10:58 0:04:10 1
248 142   1413 K├Ąther, Karl-Christian Lessing-Gymnasium 95 mSchB 17   0:10:58 0:04:10 3
249   107 1027 Schmidt, Lisa Grundschule Am Forst Kamenz 98 wSchD   41 0:11:01 0:04:13 1
250   108 1360 Barnickel, Nadine SV Steina 97 wSchC   37 0:11:02 0:04:14 2
251   109 1152 Schubert, Lydia Sorbische Grundschule Bautzen   wSchD   42 0:11:03 0:04:15 1
252   110 1463 G├╝nther, Vicky   88 Volkslauf-w   3 0:11:04 0:04:16 4
253   111 1322 Lachmann, Adriana GS Wiesa Sophie Scholl Kamenz 96 wSchC   38 0:11:05 0:04:17 2
254   112 1211 Simmang, Vivien GS am Gickelsberg 99 wSchD   43 0:11:07 0:04:19 1
255   113 1105 Hohlefeld, Johanna GS Am Gickelsberg Kamenz 98 wSchD   44 0:11:08 0:04:20 1
256   114 1161 Sakautzki, Lena Sophie SV Einheit Kamenz e.V. 98 wSchD   45 0:11:10 0:04:22 1
257   115 1006 Bachur, Regina Grundschule Am Forst Kamenz 99 wSchD   46 0:11:13 0:04:25 1
258 143   1197 Franke, Tom FC Einheit Kamenz   mSchD 67   0:11:17 0:04:29 1
259   116 1039 G├╝nzel, Paula Grundschule Am Forst Kamenz 98 wSchD   47 0:11:18 0:04:30 1
260   117 1090 Kr├╝ger, Judith GS Am Gickelsberg Kamenz 99 wSchD   48 0:11:19 0:04:31 1
261 144   1308 Seifert, Tom GS Am Gickelsberg Kamenz 96 mSchC 49   0:11:23 0:04:35 2
262   118 1321 Kinas, Patricia GS Wiesa Sophie Scholl Kamenz 96 wSchC   39 0:11:24 0:04:36 2
262   118 1323 Reetz, Wibke GS Wiesa Sophie Scholl Kamenz 97 wSchC   39 0:11:24 0:04:36 2
262 145   1424 Sch├Ânfelder, Erik SV Gr├╝n-Wei├č Elstra 95 mSchB 18   0:11:24 0:04:36 3
265   120 1009 Richter, Nele Grundschule Am Forst Kamenz 99 wSchD   49 0:11:27 0:04:39 1
265 146   1118 Haufe, Dominik GS Wiesa Sophie Scholl Kamenz 99 mSchD 68   0:11:27 0:04:39 1
267 147   1456 Zemlin, Olaf Kerkermeister e.V. Dresden 63 Volkslauf 6   0:11:28 0:04:40 1
268   121 1106 Seifert, Tina GS Am Gickelsberg Kamenz 99 wSchD   50 0:11:32 0:04:44 1
269   122 1257 Glausch, Jasmin Grundschule Am Forst Kamenz 97 Volkslauf-w   4 0:11:34 0:04:46 1
270 148   1046 Reiche, Nico Grundschule Am Forst Kamenz   mSchD 69   0:11:35 0:04:47 1
270 148   1420 Fleischer, Nico Schachverein / Mittelschule Elstra 94 mSchB 19   0:11:35 0:04:47 3
272   123 1306 Hans, Sarah GS Am Gickelsberg Kamenz 97 wSchC   41 0:11:35 0:04:47 2
273 150   1290 Pr├Âhl, Oliver Grundschule Bischheim 96 mSchC 50   0:11:36 0:04:48 2
274 151   1273 Ikkert, Andrej Grundschule Am Forst Kamenz 97 mSchC 51   0:11:40 0:04:52 2
275 152   1177 Bregulla, Pascal SV Einheit Kamenz   mSchD 70   0:11:41 0:04:53 1
276   124 1015 B├Âhme, Lisa Grundschule Am Forst Kamenz 99 wSchD   51 0:11:42 0:04:54 1
277   125 1410 Riebe, Miriam GS Wiesa Sophie Scholl Kamenz 95 wSchB   24 0:11:43 0:04:55 3
278   126 1464 G├╝nther, Nicole Kamenz 91 Volkslauf-w   5 0:11:45 0:04:57 4
279   127 1295 Haase, Theresa Grundschule Bischheim 97 wSchC   42 0:11:45 0:04:57 2
280   128 1337 Siegmund, Alina Kamenzer Pistenst├╝rmer 97 wSchC   43 0:11:46 0:04:58 2
281   129 1261 Neck, Franziska Grundschule Am Forst Kamenz 96 wSchC   44 0:11:47 0:04:59 2
282 153   1277 Hermann, Ringo Grundschule Am Forst Kamenz 97 mSchC 52   0:11:48 0:05:00 2
283   130 1263 Hermann, Laura Grundschule Am Forst Kamenz 96 wSchC   45 0:11:49 0:05:01 2
284 154   1209 Helm, Florian Tomagara 96 Volkslauf 7   0:11:51 0:05:03 1
285   131 1207 Helm, Carolin Kamenz   wSchD   52 0:11:54 0:05:06 1
286 155   1208 Helm, Volker Kamenz 63 Volkslauf 8   0:11:55 0:05:07 1
287 156   1136 Bossmann, Julius Grundschule Am Forst Kamenz 99 mSchD 71   0:11:58 0:05:10 1
288 157   1058 Temer, Kemal Grundschule Am Forst Kamenz 99 mSchD 72   0:11:59 0:05:11 1
288 157   1166 Unger, Paul SV Gr├╝n-Wei├č Elstra 1 mSchD 72   0:11:59 0:05:11 1
290 159   1044 Petasch, Loris-Marten Grundschule Am Forst Kamenz 1 mSchD 74   0:12:00 0:05:12 1
291 160   1064 Henker, Christof Grundschule Am Forst Kamenz 99 mSchD 75   0:12:02 0:05:14 1
292   132 1040 Funder, Anne Grundschule Am Forst Kamenz 98 wSchD   53 0:12:03 0:05:15 1
292   132 1121 B├╝rger, Michelle GS Wiesa Sophie Scholl Kamenz 98 wSchD   53 0:12:03 0:05:15 1
292   132 1170 Unger, Cora SV Gr├╝n-Wei├č Elstra 1 wSchD   54 0:12:03 0:05:15 1
295 161   1083 Mirtschke, Stanley Grundschule Am Forst Kamenz   mSchD 76   0:12:04 0:05:16 1
295 161   1130 Mauerer, Florian GS Wiesa Sophie Scholl Kamenz 99 mSchD 76   0:12:04 0:05:16 1
297 163   1328 Steglich, Lars GS Wiesa Sophie Scholl Kamenz 96 mSchC 53   0:12:05 0:05:17 2
298 164   1216 Mehnert, Adrian   2 mSchD 78   0:12:06 0:05:18 1
299   135 1116 Hoffmann, Liese GS Wiesa Sophie Scholl Kamenz   wSchD   56 0:12:08 0:05:20 1
300   136 1026 Zobel, JaquelineChahuayo Grundschule Am Forst Kamenz 98 wSchD   57 0:12:11 0:05:23 1
301   137 1042 Wuttig, Lisa Grundschule Am Forst Kamenz 98 wSchD   58 0:12:13 0:05:25 1
301 165   1096 Tamme, Lukas GS Am Gickelsberg Kamenz 98 mSchD 79   0:12:13 0:05:25 1
303   138 1206 Meisner, Miriam Kamenz   wSchD   59 0:12:15 0:05:27 1
304   139 1089 Gendeck, Nadine GS Am Gickelsberg Kamenz   wSchD   60 0:12:17 0:05:29 1
305 166   1112 Starker, Nico GS Am Gickelsberg Kamenz 98 mSchD 80   0:12:18 0:05:30 1
305 166   1139 Sch├Âne, Dennis Kamenzer Pistenst├╝rmer 1 mSchD 80   0:12:18 0:05:30 1
307   140 1014 Pieth, Laney-Ann Grundschule Am Forst Kamenz   wSchD   61 0:12:22 0:05:34 1
307   140 1020 Jung, Anna-Katharina Grundschule Am Forst Kamenz 99 wSchD   62 0:12:22 0:05:34 1
307   140 1220 Gie├čler, Erika     wSchD   61 0:12:22 0:05:34 1
310 168   1061 Reiche, Tobias Grundschule Am Forst Kamenz 99 mSchD 82   0:12:23 0:05:35 1
311   143 1029 Weber, Celine Grundschule Am Forst Kamenz 99 wSchD   64 0:12:25 0:05:37 1
312 169   1175 Hofmann, Oliver SV Einheit Kamenz   mSchD 83   0:12:26 0:05:38 1
312   144 1415 Wegemann, Nadine Mittelschule Elstra 94 wSchB   25 0:12:26 0:05:38 3
314   145 1022 Nicolaus, Lina Grundschule Am Forst Kamenz 98 wSchD   65 0:12:29 0:05:41 1
315 170   1053 Han├čke, Johann Grundschule Am Forst Kamenz 99 mSchD 84   0:12:32 0:05:44 1
316 171   1049 Zieris, Dominik Grundschule Am Forst Kamenz   mSchD 85   0:12:38 0:05:50 1
317   146 1004 K├╝hr, Camie BLV Rot-Wei├č 90 Bautzen 2 wSchD   66 0:12:45 0:05:57 1
318   147 1260 Runge, Franziska Grundschule Am Forst Kamenz 96 wSchC   46 0:12:47 0:05:59 2
319 172   1274 Schlacht, Kenny Grundschule Am Forst Kamenz 97 mSchC 54   0:12:50 0:06:02 2
319 172   1334 Sch├╝tze, Felix GS Wiesa Sophie Scholl Kamenz 97 mSchC 54   0:12:50 0:06:02 2
321 174   1051 Celik, Mehmet-Deniz Grundschule Am Forst Kamenz   mSchD 86   0:12:52 0:06:04 1
321   148 1375 Basche, Jasmin Grundschule am Forst 97 wSchC   47 0:12:52 0:06:04 2
323   149 1156 Edelmann, Elisa SV Einheit Kamenz e.V. 2 wSchD   67 0:12:53 0:06:05 1
324   150 1204 Lawniczak, Anni SG Oberlichtenau 99 wSchD   68 0:13:03 0:06:15 1
325 175   1052 Teich, Maik Grundschule Am Forst Kamenz 99 mSchD 87   0:13:05 0:06:17 1
326   151 1190 Forker, Milena SV Einheit Kamenz 99 wSchD   69 0:13:06 0:06:18 1
327   152 1155 Fiedler, Laura Patricia SV Einheit Kamenz e.V. 2 wSchD   70 0:13:08 0:06:20 1
328   153 1001 Walter, Marie Biathlon Verein Ringenhain   wSchD   71 0:13:22 0:06:34 1
329 176   1151 Walter, Moritz Sohland 3 mSchD 88   0:13:26 0:06:38 1
330 177   1164 Scheibler, Benjamin SV Gr├╝n-Wei├č Elstra 3 mSchD 89   0:13:32 0:06:44 1
331   154 1041 Keller, Kristina Grundschule Am Forst Kamenz 98 wSchD   72 0:13:33 0:06:45 1
332 178   1160 Sakautzki, Francesco SV Einheit Kamenz e.V. 1 mSchD 90   0:13:35 0:06:47 1
333   155 1043 Hermann, Sophie Grundschule Am Forst Kamenz 98 wSchD   73 0:13:36 0:06:48 1
334 179   1202 Han├čke, Lilli Kamenz 3 mSchD 91   0:13:43 0:06:55 1
334 179   1215 Winzer, William Kamenz   mSchD 91   0:13:43 0:06:55 1
336   156 1093 Strympe, Lisa GS Am Gickelsberg Kamenz   wSchD   74 0:13:45 0:06:57 1
336 181   1203 Han├čke, Manuel Kamenz 62 Volkslauf 9   0:13:45 0:06:57 1
338   157 1199 Saul, Natalie Kamenz 1 wSchD   75 0:13:52 0:07:04 1
339   158 1158 Han├čke, Linda SV Einheit Kamenz e.V. 1 wSchD   76 0:13:53 0:07:05 1
340   159 1097 Kl├Ąbe, Laura GS Am Gickelsberg Kamenz 99 wSchD   77 0:14:00 0:07:12 1
341   160 1157 Eggeling, Michelle SV Einheit Kamenz e.V. 1 wSchD   78 0:14:02 0:07:14 1
342   161 1018 Rathke, Maja Grundschule Am Forst Kamenz   wSchD   79 0:14:11 0:07:23 1
343 182   1218 Rathke, Peter Kamenz 68 Volkslauf 10   0:14:12 0:07:24 1
344 183   1095 Mitzschke, Max GS Am Gickelsberg Kamenz   mSchD 93   0:14:21 0:07:33 1
345   162 1005 Knaack, Alexandra Grundschule Am Forst Kamenz 99 wSchD   80 0:14:39 0:07:51 1
346   163 1133 Vogel, Michelle GS Wiesa Sophie Scholl Kamenz 98 wSchD   81 0:15:31 0:08:43 1
346   163 1455 Vogel, Sylvia GS Wiesa Sophie Scholl Kamenz 68 Volkslauf-w   6 0:15:31 0:08:43 1
348 184   1200 Schuster, Sebastian SV Einheit Kamenz 1 mSchD 94   0:15:33 0:08:45 1
349 185   1154 Skupin, Konrad SV Einheit Kamenz e.V. 3 mSchD 95   0:15:39 0:08:51 1
349   165 1461 Sakautzki, Ilka SV Einheit Kamenz e.V. 59 Volkslauf-w   7 0:15:39 0:08:51 1
351   166 1169 Ullrich, Katharina SV Gr├╝n-Wei├č Elstra 3 wSchD   82 0:15:46 0:08:58 1
352   167 1054 Bo├čmann, Linda Kamenz 2 wSchD   83 0:15:50 0:09:02 1
353   168 1358 Barth, Paula SV Gr├╝n-Wei├č Elstra 96 wSchC   48 0:25:22 0:18:34 2
(c) 1990-2020 Blue Wonder Sport Promotion - Andreas Burow - Zeitnahme & Auswertung - www.Triathlon-Service.de